sensor_id;sensor_type;location;lat;lon;timestamp;pressure;altitude;pressure_sealevel;temperature;humidity
61761;BME280;47664;51.660;-0.100;2023-11-22T00:00:37;102299.85;;;7.52;61.68
61761;BME280;47664;51.660;-0.100;2023-11-22T00:03:04;102309.38;;;7.50;61.40
61761;BME280;47664;51.660;-0.100;2023-11-22T00:05:31;102310.72;;;7.00;62.05
61761;BME280;47664;51.660;-0.100;2023-11-22T00:07:58;102321.23;;;6.68;63.12
61761;BME280;47664;51.660;-0.100;2023-11-22T00:10:25;102328.70;;;6.76;63.62
61761;BME280;47664;51.660;-0.100;2023-11-22T00:12:51;102329.89;;;6.34;64.40
61761;BME280;47664;51.660;-0.100;2023-11-22T00:15:18;102334.52;;;6.78;64.54
61761;BME280;47664;51.660;-0.100;2023-11-22T00:17:45;102332.80;;;6.70;64.78
61761;BME280;47664;51.660;-0.100;2023-11-22T00:20:12;102333.35;;;6.84;64.59
61761;BME280;47664;51.660;-0.100;2023-11-22T00:22:39;102328.19;;;6.76;63.43
61761;BME280;47664;51.660;-0.100;2023-11-22T00:25:07;102321.73;;;6.79;63.05
61761;BME280;47664;51.660;-0.100;2023-11-22T00:27:34;102315.99;;;6.62;63.31
61761;BME280;47664;51.660;-0.100;2023-11-22T00:30:01;102316.43;;;6.30;64.49
61761;BME280;47664;51.660;-0.100;2023-11-22T00:32:28;102320.61;;;6.43;64.61
61761;BME280;47664;51.660;-0.100;2023-11-22T00:34:55;102328.04;;;6.14;64.60
61761;BME280;47664;51.660;-0.100;2023-11-22T00:37:22;102331.66;;;6.52;64.01
61761;BME280;47664;51.660;-0.100;2023-11-22T00:39:49;102326.52;;;6.21;64.89
61761;BME280;47664;51.660;-0.100;2023-11-22T00:42:16;102323.58;;;6.91;64.55
61761;BME280;47664;51.660;-0.100;2023-11-22T00:44:43;102315.82;;;6.70;64.18
61761;BME280;47664;51.660;-0.100;2023-11-22T00:47:10;102316.31;;;6.41;63.93
61761;BME280;47664;51.660;-0.100;2023-11-22T00:49:37;102312.40;;;6.88;63.87
61761;BME280;47664;51.660;-0.100;2023-11-22T00:52:04;102312.07;;;6.67;63.90
61761;BME280;47664;51.660;-0.100;2023-11-22T00:54:32;102311.85;;;6.55;64.24
61761;BME280;47664;51.660;-0.100;2023-11-22T00:56:58;102314.71;;;6.33;64.07
61761;BME280;47664;51.660;-0.100;2023-11-22T00:59:25;102314.99;;;6.66;63.64
61761;BME280;47664;51.660;-0.100;2023-11-22T01:01:52;102316.06;;;6.19;64.35
61761;BME280;47664;51.660;-0.100;2023-11-22T01:04:19;102316.16;;;6.48;64.69
61761;BME280;47664;51.660;-0.100;2023-11-22T01:06:46;102313.84;;;6.48;64.86
61761;BME280;47664;51.660;-0.100;2023-11-22T01:09:14;102315.10;;;6.83;64.01
61761;BME280;47664;51.660;-0.100;2023-11-22T01:11:41;102316.31;;;6.89;64.13
61761;BME280;47664;51.660;-0.100;2023-11-22T01:14:10;102316.24;;;6.87;63.70
61761;BME280;47664;51.660;-0.100;2023-11-22T01:16:37;102314.72;;;6.54;64.21
61761;BME280;47664;51.660;-0.100;2023-11-22T01:19:04;102316.13;;;6.49;65.20
61761;BME280;47664;51.660;-0.100;2023-11-22T01:21:31;102315.85;;;6.51;65.61
61761;BME280;47664;51.660;-0.100;2023-11-22T01:23:58;102319.43;;;6.32;65.92
61761;BME280;47664;51.660;-0.100;2023-11-22T01:26:25;102317.53;;;6.53;65.77
61761;BME280;47664;51.660;-0.100;2023-11-22T01:28:52;102319.18;;;6.41;65.82
61761;BME280;47664;51.660;-0.100;2023-11-22T01:31:19;102320.02;;;6.54;65.48
61761;BME280;47664;51.660;-0.100;2023-11-22T01:33:46;102320.65;;;6.42;65.85
61761;BME280;47664;51.660;-0.100;2023-11-22T01:36:13;102326.69;;;6.07;66.32
61761;BME280;47664;51.660;-0.100;2023-11-22T01:38:40;102327.91;;;6.39;66.34
61761;BME280;47664;51.660;-0.100;2023-11-22T01:41:07;102324.96;;;6.38;66.49
61761;BME280;47664;51.660;-0.100;2023-11-22T01:43:34;102326.09;;;6.41;66.59
61761;BME280;47664;51.660;-0.100;2023-11-22T01:46:01;102328.84;;;6.41;65.96
61761;BME280;47664;51.660;-0.100;2023-11-22T01:48:28;102328.46;;;6.46;65.34
61761;BME280;47664;51.660;-0.100;2023-11-22T01:50:56;102327.15;;;6.59;65.15
61761;BME280;47664;51.660;-0.100;2023-11-22T01:53:23;102328.51;;;6.67;65.10
61761;BME280;47664;51.660;-0.100;2023-11-22T01:55:50;102325.79;;;6.50;65.26
61761;BME280;47664;51.660;-0.100;2023-11-22T01:58:17;102326.95;;;6.58;65.08
61761;BME280;47664;51.660;-0.100;2023-11-22T02:00:49;102325.40;;;7.26;64.77
61761;BME280;47664;51.660;-0.100;2023-11-22T02:03:17;102323.10;;;7.25;64.13
61761;BME280;47664;51.660;-0.100;2023-11-22T02:05:44;102321.52;;;6.81;64.73
61761;BME280;47664;51.660;-0.100;2023-11-22T02:08:12;102325.36;;;6.59;64.63
61761;BME280;47664;51.660;-0.100;2023-11-22T02:10:40;102330.13;;;6.57;64.74
61761;BME280;47664;51.660;-0.100;2023-11-22T02:13:07;102333.91;;;6.47;65.02
61761;BME280;47664;51.660;-0.100;2023-11-22T02:15:35;102334.80;;;6.65;65.47
61761;BME280;47664;51.660;-0.100;2023-11-22T02:18:03;102332.03;;;6.25;65.53
61761;BME280;47664;51.660;-0.100;2023-11-22T02:20:31;102333.69;;;6.87;64.95
61761;BME280;47664;51.660;-0.100;2023-11-22T02:23:03;102333.55;;;6.43;65.58
61761;BME280;47664;51.660;-0.100;2023-11-22T02:25:30;102338.29;;;6.61;65.33
61761;BME280;47664;51.660;-0.100;2023-11-22T02:27:57;102342.14;;;6.59;64.77
61761;BME280;47664;51.660;-0.100;2023-11-22T02:30:24;102342.05;;;6.73;64.54
61761;BME280;47664;51.660;-0.100;2023-11-22T02:32:51;102333.87;;;7.18;63.77
61761;BME280;47664;51.660;-0.100;2023-11-22T02:35:17;102320.86;;;7.27;63.01
61761;BME280;47664;51.660;-0.100;2023-11-22T02:37:44;102317.56;;;7.38;62.77
61761;BME280;47664;51.660;-0.100;2023-11-22T02:40:17;102311.62;;;7.58;62.05
61761;BME280;47664;51.660;-0.100;2023-11-22T02:42:45;102310.10;;;7.91;61.21
61761;BME280;47664;51.660;-0.100;2023-11-22T02:45:13;102313.50;;;7.64;60.83
61761;BME280;47664;51.660;-0.100;2023-11-22T02:47:40;102320.43;;;7.83;60.71
61761;BME280;47664;51.660;-0.100;2023-11-22T02:50:08;102326.20;;;7.93;60.81
61761;BME280;47664;51.660;-0.100;2023-11-22T02:52:35;102324.87;;;8.00;60.49
61761;BME280;47664;51.660;-0.100;2023-11-22T02:55:02;102319.06;;;8.10;59.90
61761;BME280;47664;51.660;-0.100;2023-11-22T02:57:29;102321.46;;;8.03;59.87
61761;BME280;47664;51.660;-0.100;2023-11-22T02:59:56;102325.82;;;8.14;59.89
61761;BME280;47664;51.660;-0.100;2023-11-22T03:02:23;102329.40;;;7.82;59.83
61761;BME280;47664;51.660;-0.100;2023-11-22T03:04:50;102324.75;;;7.52;60.77
61761;BME280;47664;51.660;-0.100;2023-11-22T03:07:17;102324.51;;;7.56;60.79
61761;BME280;47664;51.660;-0.100;2023-11-22T03:09:44;102318.05;;;7.87;60.25
61761;BME280;47664;51.660;-0.100;2023-11-22T03:12:12;102316.39;;;7.69;60.54
61761;BME280;47664;51.660;-0.100;2023-11-22T03:14:39;102317.24;;;7.55;61.43
61761;BME280;47664;51.660;-0.100;2023-11-22T03:17:05;102308.02;;;7.58;61.24
61761;BME280;47664;51.660;-0.100;2023-11-22T03:19:32;102310.26;;;7.72;60.92
61761;BME280;47664;51.660;-0.100;2023-11-22T03:21:59;102315.19;;;7.55;60.53
61761;BME280;47664;51.660;-0.100;2023-11-22T03:24:26;102320.59;;;7.73;60.42
61761;BME280;47664;51.660;-0.100;2023-11-22T03:26:53;102325.47;;;7.50;60.64
61761;BME280;47664;51.660;-0.100;2023-11-22T03:29:20;102331.40;;;7.59;60.48
61761;BME280;47664;51.660;-0.100;2023-11-22T03:31:47;102339.03;;;7.77;60.21
61761;BME280;47664;51.660;-0.100;2023-11-22T03:34:14;102343.44;;;7.94;60.26
61761;BME280;47664;51.660;-0.100;2023-11-22T03:36:41;102349.81;;;7.81;59.96
61761;BME280;47664;51.660;-0.100;2023-11-22T03:39:07;102358.03;;;7.51;59.71
61761;BME280;47664;51.660;-0.100;2023-11-22T03:41:34;102361.94;;;7.71;59.45
61761;BME280;47664;51.660;-0.100;2023-11-22T03:44:01;102364.65;;;7.73;59.55
61761;BME280;47664;51.660;-0.100;2023-11-22T03:46:28;102364.29;;;7.36;59.84
61761;BME280;47664;51.660;-0.100;2023-11-22T03:48:55;102362.92;;;7.46;60.14
61761;BME280;47664;51.660;-0.100;2023-11-22T03:51:22;102362.99;;;7.14;60.09
61761;BME280;47664;51.660;-0.100;2023-11-22T03:53:49;102357.93;;;7.70;60.18
61761;BME280;47664;51.660;-0.100;2023-11-22T03:56:16;102359.33;;;7.55;60.35
61761;BME280;47664;51.660;-0.100;2023-11-22T03:58:43;102357.94;;;7.43;60.60
61761;BME280;47664;51.660;-0.100;2023-11-22T04:01:10;102361.19;;;7.61;60.00
61761;BME280;47664;51.660;-0.100;2023-11-22T04:03:37;102360.36;;;7.50;59.78
61761;BME280;47664;51.660;-0.100;2023-11-22T04:06:04;102353.85;;;7.35;60.41
61761;BME280;47664;51.660;-0.100;2023-11-22T04:08:32;102353.12;;;7.35;60.46
61761;BME280;47664;51.660;-0.100;2023-11-22T04:10:59;102349.78;;;7.72;59.70
61761;BME280;47664;51.660;-0.100;2023-11-22T04:13:26;102354.94;;;7.51;59.06
61761;BME280;47664;51.660;-0.100;2023-11-22T04:15:53;102357.74;;;7.71;59.56
61761;BME280;47664;51.660;-0.100;2023-11-22T04:18:20;102357.02;;;7.54;59.33
61761;BME280;47664;51.660;-0.100;2023-11-22T04:20:47;102352.85;;;7.79;58.85
61761;BME280;47664;51.660;-0.100;2023-11-22T04:23:14;102357.12;;;7.44;59.13
61761;BME280;47664;51.660;-0.100;2023-11-22T04:25:41;102357.78;;;7.62;59.32
61761;BME280;47664;51.660;-0.100;2023-11-22T04:28:08;102365.41;;;6.88;60.48
61761;BME280;47664;51.660;-0.100;2023-11-22T04:30:35;102366.79;;;6.42;61.73
61761;BME280;47664;51.660;-0.100;2023-11-22T04:33:02;102377.01;;;6.51;63.22
61761;BME280;47664;51.660;-0.100;2023-11-22T04:35:29;102375.08;;;6.52;62.78
61761;BME280;47664;51.660;-0.100;2023-11-22T04:37:56;102377.42;;;6.98;61.87
61761;BME280;47664;51.660;-0.100;2023-11-22T04:40:23;102374.26;;;7.19;61.60
61761;BME280;47664;51.660;-0.100;2023-11-22T04:42:50;102365.30;;;7.44;60.46
61761;BME280;47664;51.660;-0.100;2023-11-22T04:45:18;102360.85;;;7.49;60.75
61761;BME280;47664;51.660;-0.100;2023-11-22T04:47:44;102356.25;;;7.19;60.37
61761;BME280;47664;51.660;-0.100;2023-11-22T04:50:11;102356.46;;;7.87;60.03
61761;BME280;47664;51.660;-0.100;2023-11-22T04:52:38;102351.30;;;7.98;59.47
61761;BME280;47664;51.660;-0.100;2023-11-22T04:55:06;102344.05;;;7.81;59.23
61761;BME280;47664;51.660;-0.100;2023-11-22T04:57:33;102343.48;;;7.59;59.11
61761;BME280;47664;51.660;-0.100;2023-11-22T05:00:00;102349.08;;;7.38;59.46
61761;BME280;47664;51.660;-0.100;2023-11-22T05:02:28;102347.51;;;7.72;59.96
61761;BME280;47664;51.660;-0.100;2023-11-22T05:04:55;102362.07;;;7.65;59.66
61761;BME280;47664;51.660;-0.100;2023-11-22T05:07:22;102369.25;;;7.33;59.79
61761;BME280;47664;51.660;-0.100;2023-11-22T05:09:49;102373.75;;;7.58;59.68
61761;BME280;47664;51.660;-0.100;2023-11-22T05:12:16;102372.12;;;7.84;59.96
61761;BME280;47664;51.660;-0.100;2023-11-22T05:14:42;102367.09;;;7.95;59.51
61761;BME280;47664;51.660;-0.100;2023-11-22T05:17:09;102363.46;;;7.43;59.94
61761;BME280;47664;51.660;-0.100;2023-11-22T05:19:36;102356.25;;;7.78;60.11
61761;BME280;47664;51.660;-0.100;2023-11-22T05:22:03;102364.61;;;7.58;60.00
61761;BME280;47664;51.660;-0.100;2023-11-22T05:24:31;102369.83;;;7.57;59.64
61761;BME280;47664;51.660;-0.100;2023-11-22T05:26:58;102375.75;;;7.32;59.94
61761;BME280;47664;51.660;-0.100;2023-11-22T05:29:25;102368.27;;;6.87;61.06
61761;BME280;47664;51.660;-0.100;2023-11-22T05:31:52;102367.24;;;7.00;61.53
61761;BME280;47664;51.660;-0.100;2023-11-22T05:34:19;102364.74;;;7.15;60.99
61761;BME280;47664;51.660;-0.100;2023-11-22T05:36:46;102376.66;;;7.40;60.01
61761;BME280;47664;51.660;-0.100;2023-11-22T05:39:12;102372.31;;;7.54;59.73
61761;BME280;47664;51.660;-0.100;2023-11-22T05:41:39;102365.36;;;7.13;59.81
61761;BME280;47664;51.660;-0.100;2023-11-22T05:44:11;102365.64;;;7.33;59.93
61761;BME280;47664;51.660;-0.100;2023-11-22T05:46:38;102361.07;;;7.71;59.38
61761;BME280;47664;51.660;-0.100;2023-11-22T05:49:05;102354.27;;;7.19;59.54
61761;BME280;47664;51.660;-0.100;2023-11-22T05:51:33;102353.94;;;7.54;58.60
61761;BME280;47664;51.660;-0.100;2023-11-22T05:53:59;102345.29;;;8.05;57.96
61761;BME280;47664;51.660;-0.100;2023-11-22T05:56:26;102335.72;;;7.51;58.29
61761;BME280;47664;51.660;-0.100;2023-11-22T05:58:53;102327.99;;;7.39;58.46
61761;BME280;47664;51.660;-0.100;2023-11-22T06:01:20;102328.10;;;7.35;59.35
61761;BME280;47664;51.660;-0.100;2023-11-22T06:03:48;102329.81;;;7.63;58.71
61761;BME280;47664;51.660;-0.100;2023-11-22T06:06:15;102325.77;;;7.67;58.62
61761;BME280;47664;51.660;-0.100;2023-11-22T06:08:42;102333.49;;;7.50;58.93
61761;BME280;47664;51.660;-0.100;2023-11-22T06:11:09;102332.37;;;7.37;58.85
61761;BME280;47664;51.660;-0.100;2023-11-22T06:13:36;102334.39;;;7.39;59.22
61761;BME280;47664;51.660;-0.100;2023-11-22T06:16:04;102334.55;;;7.29;58.95
61761;BME280;47664;51.660;-0.100;2023-11-22T06:18:30;102347.07;;;7.39;59.14
61761;BME280;47664;51.660;-0.100;2023-11-22T06:20:57;102350.85;;;7.66;59.16
61761;BME280;47664;51.660;-0.100;2023-11-22T06:23:24;102352.05;;;7.22;59.20
61761;BME280;47664;51.660;-0.100;2023-11-22T06:25:51;102350.54;;;7.41;58.56
61761;BME280;47664;51.660;-0.100;2023-11-22T06:28:18;102353.88;;;7.46;58.83
61761;BME280;47664;51.660;-0.100;2023-11-22T06:30:45;102363.87;;;7.64;58.40
61761;BME280;47664;51.660;-0.100;2023-11-22T06:33:12;102363.64;;;7.22;59.44
61761;BME280;47664;51.660;-0.100;2023-11-22T06:35:38;102369.51;;;7.21;59.66
61761;BME280;47664;51.660;-0.100;2023-11-22T06:38:05;102369.40;;;7.39;59.26
61761;BME280;47664;51.660;-0.100;2023-11-22T06:40:33;102362.52;;;7.41;59.25
61761;BME280;47664;51.660;-0.100;2023-11-22T06:43:00;102360.95;;;7.44;59.39
61761;BME280;47664;51.660;-0.100;2023-11-22T06:45:26;102354.44;;;7.30;59.41
61761;BME280;47664;51.660;-0.100;2023-11-22T06:47:53;102352.84;;;6.95;59.77
61761;BME280;47664;51.660;-0.100;2023-11-22T06:50:20;102349.61;;;7.56;59.80
61761;BME280;47664;51.660;-0.100;2023-11-22T06:52:47;102354.72;;;7.46;59.77
61761;BME280;47664;51.660;-0.100;2023-11-22T06:55:13;102355.53;;;7.38;60.06
61761;BME280;47664;51.660;-0.100;2023-11-22T06:57:46;102355.26;;;7.57;59.59
61761;BME280;47664;51.660;-0.100;2023-11-22T07:00:13;102358.65;;;7.46;60.00
61761;BME280;47664;51.660;-0.100;2023-11-22T07:02:40;102357.95;;;7.42;59.96
61761;BME280;47664;51.660;-0.100;2023-11-22T07:05:08;102357.10;;;7.57;59.53
61761;BME280;47664;51.660;-0.100;2023-11-22T07:07:35;102358.64;;;7.39;59.59
61761;BME280;47664;51.660;-0.100;2023-11-22T07:10:02;102353.98;;;7.38;60.07
61761;BME280;47664;51.660;-0.100;2023-11-22T07:12:28;102355.66;;;7.34;60.15
61761;BME280;47664;51.660;-0.100;2023-11-22T07:14:55;102358.82;;;7.21;60.98
61761;BME280;47664;51.660;-0.100;2023-11-22T07:17:22;102360.77;;;7.43;60.96
61761;BME280;47664;51.660;-0.100;2023-11-22T07:19:49;102368.80;;;7.44;60.98
61761;BME280;47664;51.660;-0.100;2023-11-22T07:22:16;102376.84;;;7.42;60.68
61761;BME280;47664;51.660;-0.100;2023-11-22T07:24:43;102376.04;;;7.69;60.47
61761;BME280;47664;51.660;-0.100;2023-11-22T07:27:11;102375.12;;;7.55;60.15
61761;BME280;47664;51.660;-0.100;2023-11-22T07:29:39;102379.96;;;7.56;59.99
61761;BME280;47664;51.660;-0.100;2023-11-22T07:32:07;102385.42;;;7.66;59.92
61761;BME280;47664;51.660;-0.100;2023-11-22T07:34:35;102386.26;;;7.86;59.46
61761;BME280;47664;51.660;-0.100;2023-11-22T07:37:03;102386.56;;;7.52;60.22
61761;BME280;47664;51.660;-0.100;2023-11-22T07:39:30;102387.84;;;7.40;59.95
61761;BME280;47664;51.660;-0.100;2023-11-22T07:41:57;102394.04;;;7.60;58.94
61761;BME280;47664;51.660;-0.100;2023-11-22T07:44:24;102395.06;;;7.53;59.53
61761;BME280;47664;51.660;-0.100;2023-11-22T07:46:51;102395.48;;;7.52;59.54
61761;BME280;47664;51.660;-0.100;2023-11-22T07:49:19;102392.96;;;7.42;59.79
61761;BME280;47664;51.660;-0.100;2023-11-22T07:51:46;102395.19;;;7.93;60.01
61761;BME280;47664;51.660;-0.100;2023-11-22T07:54:13;102403.55;;;7.45;60.18
61761;BME280;47664;51.660;-0.100;2023-11-22T07:56:41;102402.03;;;7.60;59.76
61761;BME280;47664;51.660;-0.100;2023-11-22T07:59:08;102402.41;;;7.59;59.98
61761;BME280;47664;51.660;-0.100;2023-11-22T08:01:36;102410.34;;;8.05;59.31
61761;BME280;47664;51.660;-0.100;2023-11-22T08:04:03;102416.61;;;7.85;59.53
61761;BME280;47664;51.660;-0.100;2023-11-22T08:06:31;102421.26;;;7.97;59.39
61761;BME280;47664;51.660;-0.100;2023-11-22T08:08:59;102424.39;;;8.06;59.37
61761;BME280;47664;51.660;-0.100;2023-11-22T08:11:25;102428.13;;;7.56;60.10
61761;BME280;47664;51.660;-0.100;2023-11-22T08:13:53;102419.95;;;7.83;60.07
61761;BME280;47664;51.660;-0.100;2023-11-22T08:16:20;102408.28;;;7.76;59.59
61761;BME280;47664;51.660;-0.100;2023-11-22T08:18:48;102412.63;;;7.89;59.85
61761;BME280;47664;51.660;-0.100;2023-11-22T08:21:16;102421.12;;;7.63;60.58
61761;BME280;47664;51.660;-0.100;2023-11-22T08:23:45;102427.03;;;7.60;60.59
61761;BME280;47664;51.660;-0.100;2023-11-22T08:26:12;102426.96;;;7.93;60.60
61761;BME280;47664;51.660;-0.100;2023-11-22T08:28:39;102421.05;;;8.00;60.23
61761;BME280;47664;51.660;-0.100;2023-11-22T08:31:06;102416.53;;;7.52;60.48
61761;BME280;47664;51.660;-0.100;2023-11-22T08:33:34;102409.26;;;7.77;59.85
61761;BME280;47664;51.660;-0.100;2023-11-22T08:36:00;102398.20;;;7.89;59.80
61761;BME280;47664;51.660;-0.100;2023-11-22T08:38:27;102393.62;;;7.78;60.51
61761;BME280;47664;51.660;-0.100;2023-11-22T08:40:54;102394.90;;;7.97;60.06
61761;BME280;47664;51.660;-0.100;2023-11-22T08:43:22;102404.79;;;7.50;61.48
61761;BME280;47664;51.660;-0.100;2023-11-22T08:45:50;102411.34;;;7.35;62.63
61761;BME280;47664;51.660;-0.100;2023-11-22T08:48:16;102409.05;;;7.32;62.66
61761;BME280;47664;51.660;-0.100;2023-11-22T08:50:44;102399.73;;;7.55;62.86
61761;BME280;47664;51.660;-0.100;2023-11-22T08:53:12;102393.67;;;7.35;62.86
61761;BME280;47664;51.660;-0.100;2023-11-22T08:55:38;102402.83;;;7.62;62.70
61761;BME280;47664;51.660;-0.100;2023-11-22T08:58:05;102398.93;;;7.75;62.64
61761;BME280;47664;51.660;-0.100;2023-11-22T09:00:32;102388.11;;;7.95;62.03
61761;BME280;47664;51.660;-0.100;2023-11-22T09:02:59;102387.15;;;7.82;61.62
61761;BME280;47664;51.660;-0.100;2023-11-22T09:05:26;102380.28;;;7.45;62.08
61761;BME280;47664;51.660;-0.100;2023-11-22T09:07:53;102380.73;;;7.40;62.76
61761;BME280;47664;51.660;-0.100;2023-11-22T09:10:20;102381.64;;;7.74;62.82
61761;BME280;47664;51.660;-0.100;2023-11-22T09:12:47;102383.36;;;7.79;62.62
61761;BME280;47664;51.660;-0.100;2023-11-22T09:15:14;102383.91;;;7.85;62.94
61761;BME280;47664;51.660;-0.100;2023-11-22T09:17:42;102378.36;;;7.91;62.56
61761;BME280;47664;51.660;-0.100;2023-11-22T09:20:09;102377.52;;;7.75;62.08
61761;BME280;47664;51.660;-0.100;2023-11-22T09:22:38;102380.22;;;7.89;62.30
61761;BME280;47664;51.660;-0.100;2023-11-22T09:25:09;102385.84;;;7.25;63.09
61761;BME280;47664;51.660;-0.100;2023-11-22T09:27:35;102377.82;;;7.44;63.88
61761;BME280;47664;51.660;-0.100;2023-11-22T09:30:03;102382.30;;;7.30;64.05
61761;BME280;47664;51.660;-0.100;2023-11-22T09:32:31;102376.40;;;7.66;63.75
61761;BME280;47664;51.660;-0.100;2023-11-22T09:34:58;102361.67;;;7.78;62.77
61761;BME280;47664;51.660;-0.100;2023-11-22T09:37:25;102366.26;;;7.58;62.74
61761;BME280;47664;51.660;-0.100;2023-11-22T09:39:52;102363.77;;;7.58;62.66
61761;BME280;47664;51.660;-0.100;2023-11-22T09:42:20;102372.57;;;7.33;62.81
61761;BME280;47664;51.660;-0.100;2023-11-22T09:44:47;102374.70;;;7.49;62.53
61761;BME280;47664;51.660;-0.100;2023-11-22T09:47:15;102363.08;;;7.84;62.18
61761;BME280;47664;51.660;-0.100;2023-11-22T09:49:44;102353.67;;;7.31;62.35
61761;BME280;47664;51.660;-0.100;2023-11-22T09:52:15;102345.04;;;7.38;62.25
61761;BME280;47664;51.660;-0.100;2023-11-22T09:54:45;102352.58;;;7.31;63.19
61761;BME280;47664;51.660;-0.100;2023-11-22T09:57:14;102353.23;;;7.79;62.69
61761;BME280;47664;51.660;-0.100;2023-11-22T09:59:42;102356.08;;;7.75;62.99
61761;BME280;47664;51.660;-0.100;2023-11-22T10:02:09;102354.78;;;7.63;62.90
61761;BME280;47664;51.660;-0.100;2023-11-22T10:04:36;102362.40;;;7.06;63.72
61761;BME280;47664;51.660;-0.100;2023-11-22T10:07:03;102369.69;;;6.90;64.26
61761;BME280;47664;51.660;-0.100;2023-11-22T10:09:31;102370.11;;;7.21;64.07
61761;BME280;47664;51.660;-0.100;2023-11-22T10:11:58;102362.16;;;7.22;63.80
61761;BME280;47664;51.660;-0.100;2023-11-22T10:14:28;102361.81;;;7.74;62.66
61761;BME280;47664;51.660;-0.100;2023-11-22T10:16:59;102352.10;;;7.67;62.72
61761;BME280;47664;51.660;-0.100;2023-11-22T10:19:27;102347.23;;;7.05;63.36
61761;BME280;47664;51.660;-0.100;2023-11-22T10:22:10;102340.89;;;7.40;63.23
61761;BME280;47664;51.660;-0.100;2023-11-22T10:24:37;102344.77;;;7.40;62.92
61761;BME280;47664;51.660;-0.100;2023-11-22T10:27:04;102342.83;;;7.22;63.47
61761;BME280;47664;51.660;-0.100;2023-11-22T10:29:32;102326.08;;;7.19;62.36
61761;BME280;47664;51.660;-0.100;2023-11-22T10:31:59;102310.53;;;7.85;61.98
61761;BME280;47664;51.660;-0.100;2023-11-22T10:34:27;102305.51;;;7.73;62.20
61761;BME280;47664;51.660;-0.100;2023-11-22T10:36:55;102311.94;;;7.83;61.29
61761;BME280;47664;51.660;-0.100;2023-11-22T10:39:23;102314.04;;;7.35;62.79
61761;BME280;47664;51.660;-0.100;2023-11-22T10:41:50;102308.90;;;7.23;62.52
61761;BME280;47664;51.660;-0.100;2023-11-22T10:44:20;102314.43;;;7.25;62.48
61761;BME280;47664;51.660;-0.100;2023-11-22T10:46:48;102314.27;;;7.47;62.47
61761;BME280;47664;51.660;-0.100;2023-11-22T10:49:15;102312.93;;;7.43;62.20
61761;BME280;47664;51.660;-0.100;2023-11-22T10:51:44;102308.82;;;7.44;62.02
61761;BME280;47664;51.660;-0.100;2023-11-22T10:54:13;102315.70;;;7.36;62.34
61761;BME280;47664;51.660;-0.100;2023-11-22T10:56:45;102316.89;;;7.88;61.72
61761;BME280;47664;51.660;-0.100;2023-11-22T10:59:14;102306.91;;;7.71;62.00
61761;BME280;47664;51.660;-0.100;2023-11-22T11:01:45;102294.58;;;7.66;61.68
61761;BME280;47664;51.660;-0.100;2023-11-22T11:04:19;102286.94;;;8.26;60.80
61761;BME280;47664;51.660;-0.100;2023-11-22T11:06:51;102299.99;;;7.96;60.28
61761;BME280;47664;51.660;-0.100;2023-11-22T11:09:19;102312.03;;;7.77;61.40
61761;BME280;47664;51.660;-0.100;2023-11-22T11:11:46;102315.50;;;7.88;61.70
61761;BME280;47664;51.660;-0.100;2023-11-22T11:14:14;102323.24;;;7.52;61.70
61761;BME280;47664;51.660;-0.100;2023-11-22T11:16:42;102325.90;;;7.73;61.65
61761;BME280;47664;51.660;-0.100;2023-11-22T11:19:09;102323.48;;;7.84;61.39
61761;BME280;47664;51.660;-0.100;2023-11-22T11:21:36;102331.40;;;7.88;61.38
61761;BME280;47664;51.660;-0.100;2023-11-22T11:24:04;102324.91;;;7.50;61.13
61761;BME280;47664;51.660;-0.100;2023-11-22T11:26:32;102317.58;;;7.57;61.76
61761;BME280;47664;51.660;-0.100;2023-11-22T11:29:00;102311.22;;;7.84;61.18
61761;BME280;47664;51.660;-0.100;2023-11-22T11:31:31;102303.64;;;7.88;61.03
61761;BME280;47664;51.660;-0.100;2023-11-22T11:33:59;102290.88;;;7.40;61.96
61761;BME280;47664;51.660;-0.100;2023-11-22T11:36:28;102288.36;;;8.30;61.08
61761;BME280;47664;51.660;-0.100;2023-11-22T11:38:57;102280.57;;;8.06;60.97
61761;BME280;47664;51.660;-0.100;2023-11-22T11:41:26;102279.82;;;8.05;61.25
61761;BME280;47664;51.660;-0.100;2023-11-22T11:43:55;102280.08;;;7.79;62.34
61761;BME280;47664;51.660;-0.100;2023-11-22T11:46:23;102273.48;;;8.06;61.99
61761;BME280;47664;51.660;-0.100;2023-11-22T11:48:51;102260.58;;;7.46;62.05
61761;BME280;47664;51.660;-0.100;2023-11-22T11:51:20;102248.40;;;7.76;61.92
61761;BME280;47664;51.660;-0.100;2023-11-22T11:53:49;102237.58;;;7.81;60.63
61761;BME280;47664;51.660;-0.100;2023-11-22T11:56:17;102226.77;;;8.17;60.15
61761;BME280;47664;51.660;-0.100;2023-11-22T11:58:45;102215.72;;;8.60;59.34
61761;BME280;47664;51.660;-0.100;2023-11-22T12:01:13;102196.30;;;8.34;59.49
61761;BME280;47664;51.660;-0.100;2023-11-22T12:03:40;102183.29;;;8.94;58.49
61761;BME280;47664;51.660;-0.100;2023-11-22T12:06:08;102188.64;;;8.72;58.13
61761;BME280;47664;51.660;-0.100;2023-11-22T12:08:35;102184.46;;;8.53;57.75
61761;BME280;47664;51.660;-0.100;2023-11-22T12:11:03;102183.50;;;8.40;59.56
61761;BME280;47664;51.660;-0.100;2023-11-22T12:13:31;102182.58;;;8.77;58.85
61761;BME280;47664;51.660;-0.100;2023-11-22T12:15:58;102184.30;;;8.65;58.02
61761;BME280;47664;51.660;-0.100;2023-11-22T12:18:39;102186.73;;;9.04;58.49
61761;BME280;47664;51.660;-0.100;2023-11-22T12:21:06;102193.24;;;8.62;59.16
61761;BME280;47664;51.660;-0.100;2023-11-22T12:23:34;102204.96;;;8.61;59.17
61761;BME280;47664;51.660;-0.100;2023-11-22T12:26:02;102214.57;;;8.02;59.80
61761;BME280;47664;51.660;-0.100;2023-11-22T12:28:30;102230.06;;;8.43;60.15
61761;BME280;47664;51.660;-0.100;2023-11-22T12:31:07;102232.63;;;8.08;61.12
61761;BME280;47664;51.660;-0.100;2023-11-22T12:33:34;102235.90;;;7.99;61.89
61761;BME280;47664;51.660;-0.100;2023-11-22T12:36:01;102243.37;;;8.03;62.48
61761;BME280;47664;51.660;-0.100;2023-11-22T12:38:29;102248.40;;;8.07;62.90
61761;BME280;47664;51.660;-0.100;2023-11-22T12:40:57;102233.66;;;7.98;62.67
61761;BME280;47664;51.660;-0.100;2023-11-22T12:43:24;102218.62;;;8.22;61.71
61761;BME280;47664;51.660;-0.100;2023-11-22T12:45:58;102204.44;;;8.00;61.43
61761;BME280;47664;51.660;-0.100;2023-11-22T12:48:26;102198.81;;;8.58;60.98
61761;BME280;47664;51.660;-0.100;2023-11-22T12:50:53;102183.82;;;8.72;59.67